Time;durP1;ratioP1;P1;durP2;ratioP2;P2;SDS_P1;SDS_P2;PMS_P1;PMS_P2;Temp;Humidity;BMP_temperature;BMP_pressure;BME280_temperature;BME280_humidity;BME280_pressure;Samples;Min_cycle;Max_cycle;Signal;HPM_P1;HPM_P2
2023/07/13 00:01:20;;;;;;;12.60;11.00;;;;;;;15.15;100.00;101113.31;4989422;28;20461;-44
2023/07/13 00:03:48;;;;;;;11.60;10.40;;;;;;;15.12;100.00;101103.00;4989275;28;20469;-45
2023/07/13 00:06:16;;;;;;;13.50;11.07;;;;;;;15.10;100.00;101104.25;4988765;28;20473;-44
2023/07/13 00:08:44;;;;;;;9.77;9.17;;;;;;;15.10;100.00;101104.25;4988206;28;20470;-42
2023/07/13 00:11:12;;;;;;;12.40;11.20;;;;;;;15.09;100.00;101099.91;4989162;28;20820;-45
2023/07/13 00:13:40;;;;;;;12.37;11.37;;;;;;;15.08;100.00;101104.50;4989837;28;20437;-42
2023/07/13 00:16:09;;;;;;;11.87;10.77;;;;;;;15.06;100.00;101103.03;4988749;28;20492;-45
2023/07/13 00:18:38;;;;;;;12.67;11.07;;;;;;;15.05;100.00;101109.47;4989818;28;20430;-43
2023/07/13 00:21:06;;;;;;;12.17;11.07;;;;;;;15.04;100.00;101113.19;4989645;28;20515;-45
2023/07/13 00:23:34;;;;;;;11.60;10.73;;;;;;;15.00;100.00;101115.47;4988505;28;20429;-45
2023/07/13 00:26:02;;;;;;;12.27;11.27;;;;;;;15.01;100.00;101119.81;4988347;28;20470;-44
2023/07/13 00:28:30;;;;;;;13.20;11.90;;;;;;;15.03;100.00;101111.53;4988569;28;20514;-43
2023/07/13 00:30:58;;;;;;;14.80;12.87;;;;;;;15.03;100.00;101109.66;4989259;28;20879;-42
2023/07/13 00:33:26;;;;;;;14.20;13.00;;;;;;;15.05;100.00;101121.03;4988663;28;20974;-43
2023/07/13 00:35:56;;;;;;;14.40;13.23;;;;;;;15.05;100.00;101112.16;4988131;28;20469;-44
2023/07/13 00:38:24;;;;;;;12.30;11.47;;;;;;;15.06;100.00;101114.59;4988700;28;20769;-44
2023/07/13 00:40:52;;;;;;;15.13;13.63;;;;;;;15.10;100.00;101106.94;4988842;28;20434;-43
2023/07/13 00:43:22;;;;;;;13.37;12.20;;;;;;;15.10;100.00;101104.25;4988442;28;20512;-45
2023/07/13 00:46:14;;;;;;;12.27;11.17;;;;;;;15.10;100.00;101104.25;4988140;28;20552;-44
2023/07/13 00:48:45;;;;;;;12.77;11.87;;;;;;;15.09;100.00;101102.59;4989012;28;20477;-44
2023/07/13 00:51:19;;;;;;;13.10;12.20;;;;;;;15.07;100.00;101099.31;4989590;28;20509;-43
2023/07/13 00:53:47;;;;;;;12.90;11.83;;;;;;;15.04;100.00;101100.59;4988305;28;20437;-42
2023/07/13 00:56:16;;;;;;;12.17;11.47;;;;;;;15.02;100.00;101088.41;4988706;28;20528;-44
2023/07/13 00:58:44;;;;;;;13.60;12.40;;;;;;;15.00;100.00;101087.78;4988742;28;20995;-44
2023/07/13 01:01:12;;;;;;;12.00;11.03;;;;;;;14.97;100.00;101094.41;4989227;28;20450;-45
2023/07/13 01:03:41;;;;;;;13.53;12.70;;;;;;;14.95;100.00;101100.03;4989288;28;20438;-44
2023/07/13 01:06:09;;;;;;;12.90;11.67;;;;;;;14.94;100.00;101106.41;4988520;28;20492;-46
2023/07/13 01:08:39;;;;;;;13.03;12.03;;;;;;;14.93;100.00;101090.53;4988782;28;20466;-44
2023/07/13 01:11:08;;;;;;;12.50;11.40;;;;;;;14.94;100.00;101100.22;4988464;28;20450;-44
2023/07/13 01:13:36;;;;;;;14.33;11.57;;;;;;;14.95;100.00;101097.34;4988485;28;20430;-42
2023/07/13 01:16:13;;;;;;;11.67;11.07;;;;;;;14.93;100.00;101099.41;4991205;28;20816;-42
2023/07/13 01:18:41;;;;;;;12.43;11.67;;;;;;;14.93;100.00;101094.03;4991906;28;20437;-48
2023/07/13 01:21:10;;;;;;;12.97;12.17;;;;;;;14.93;100.00;101094.03;4991740;28;20481;-46
2023/07/13 01:23:38;;;;;;;12.77;11.97;;;;;;;14.95;100.00;101096.50;4992043;28;20445;-41
2023/07/13 01:26:06;;;;;;;12.40;11.20;;;;;;;14.96;100.00;101106.22;4991009;28;20473;-45
2023/07/13 01:28:37;;;;;;;13.80;12.60;;;;;;;14.97;100.00;101102.47;4993013;28;21003;-42
2023/07/13 01:31:06;;;;;;;12.70;11.77;;;;;;;14.98;100.00;101100.63;4991930;28;20496;-47
2023/07/13 01:33:34;;;;;;;12.00;11.37;;;;;;;15.02;100.00;101096.47;4991529;28;20418;-46
2023/07/13 01:36:03;;;;;;;12.87;11.90;;;;;;;15.01;100.00;101097.50;4990824;28;20520;-42
2023/07/13 01:38:32;;;;;;;12.43;11.23;;;;;;;15.01;100.00;101101.00;4991318;28;20445;-42
2023/07/13 01:41:00;;;;;;;12.17;11.50;;;;;;;15.01;100.00;101094.81;4993359;28;20430;-44
2023/07/13 01:43:28;;;;;;;12.60;11.60;;;;;;;15.00;100.00;101093.16;4991592;28;20875;-47
2023/07/13 01:45:55;;;;;;;14.70;12.60;;;;;;;14.99;100.00;101094.22;4987070;28;20470;-50
2023/07/13 01:48:43;;;;;;;13.53;12.47;;;;;;;14.95;100.00;101091.97;4989088;28;20433;-44
2023/07/13 01:51:11;;;;;;;13.27;12.17;;;;;;;14.90;100.00;101089.09;4981045;28;20464;-47
2023/07/13 01:53:40;;;;;;;12.87;11.87;;;;;;;14.91;100.00;101088.06;4991690;28;20434;-45
2023/07/13 01:56:08;;;;;;;14.27;13.07;;;;;;;14.87;100.00;101084.16;4990981;28;20469;-46
2023/07/13 01:58:36;;;;;;;15.80;14.20;;;;;;;14.86;100.00;101079.84;4992476;28;20948;-42
2023/07/13 02:01:04;;;;;;;15.47;14.37;;;;;;;14.82;100.00;101081.28;4991196;28;20481;-44
2023/07/13 02:03:31;;;;;;;14.30;13.20;;;;;;;14.82;100.00;101091.22;4992573;28;20441;-41
2023/07/13 02:06:00;;;;;;;14.90;13.63;;;;;;;14.82;100.00;101083.97;4991405;28;20476;-42
2023/07/13 02:08:27;;;;;;;13.97;12.90;;;;;;;14.82;100.00;101088.53;4992460;28;20438;-43
2023/07/13 02:10:57;;;;;;;13.30;12.50;;;;;;;14.80;100.00;101088.75;4992080;28;21275;-43
2023/07/13 02:13:24;;;;;;;13.83;12.83;;;;;;;14.81;100.00;101086.91;4991645;28;20436;-44
2023/07/13 02:15:52;;;;;;;14.03;13.00;;;;;;;14.81;100.00;101085.00;4991948;28;20496;-45
2023/07/13 02:18:20;;;;;;;14.00;13.00;;;;;;;14.80;100.00;101088.75;4991558;28;20771;-43
2023/07/13 02:20:48;;;;;;;13.53;12.63;;;;;;;14.80;100.00;101093.28;4991228;28;20526;-44
2023/07/13 02:23:15;;;;;;;13.57;12.67;;;;;;;14.79;100.00;101084.41;4991727;28;20853;-44
2023/07/13 02:25:43;;;;;;;13.43;12.43;;;;;;;14.79;100.00;101086.28;4991450;28;20470;-43
2023/07/13 02:28:13;;;;;;;13.93;12.60;;;;;;;14.75;100.00;101080.53;4989518;28;20489;-44
2023/07/13 02:30:40;;;;;;;12.40;11.70;;;;;;;14.77;100.00;101077.63;4991087;28;20528;-44
2023/07/13 02:33:08;;;;;;;13.60;12.60;;;;;;;14.75;100.00;101072.47;4990796;28;20442;-43
2023/07/13 02:35:36;;;;;;;13.63;12.33;;;;;;;14.76;100.00;101075.97;4991452;28;20453;-42
2023/07/13 02:38:03;;;;;;;13.23;12.40;;;;;;;14.72;100.00;101074.75;4992165;28;20513;-44
2023/07/13 02:40:33;;;;;;;12.80;12.00;;;;;;;14.70;100.00;101072.28;4991360;28;20948;-45
2023/07/13 02:43:01;;;;;;;14.67;13.73;;;;;;;14.69;100.00;101069.81;4990987;28;20469;-43
2023/07/13 02:45:30;;;;;;;14.43;13.20;;;;;;;14.68;100.00;101066.31;4990109;28;20466;-48
2023/07/13 02:47:58;;;;;;;14.90;13.50;;;;;;;14.67;100.00;101070.03;4991071;28;20500;-42
2023/07/13 02:50:25;;;;;;;14.90;13.80;;;;;;;14.66;100.00;101067.56;4991436;28;20480;-44
2023/07/13 02:52:53;;;;;;;16.00;14.90;;;;;;;14.66;100.00;101065.72;4991222;28;20450;-43
2023/07/13 02:55:21;;;;;;;14.40;13.30;;;;;;;14.69;100.00;101067.16;4989648;28;20469;-44
2023/07/13 02:57:48;;;;;;;17.77;16.37;;;;;;;14.68;100.00;101060.94;4991691;28;20804;-42
2023/07/13 03:00:17;;;;;;;18.70;17.20;;;;;;;14.70;100.00;101061.53;4991591;28;20441;-44
2023/07/13 03:02:46;;;;;;;17.73;16.30;;;;;;;14.71;100.00;101063.19;4989727;28;20894;-46
2023/07/13 03:05:14;;;;;;;19.23;17.63;;;;;;;14.70;100.00;101061.53;4990813;28;20472;-44
2023/07/13 03:07:44;;;;;;;20.87;19.23;;;;;;;14.72;100.00;101056.81;4990549;28;20461;-42
2023/07/13 03:10:11;;;;;;;18.33;17.10;;;;;;;14.76;100.00;101065.22;4991102;28;20845;-45
2023/07/13 03:12:39;;;;;;;20.17;18.47;;;;;;;14.76;100.00;101063.38;4990843;28;20485;-44
2023/07/13 03:15:08;;;;;;;19.93;18.10;;;;;;;14.77;100.00;101065.03;4990165;28;20514;-43
2023/07/13 03:17:35;;;;;;;20.97;19.03;;;;;;;14.81;100.00;101066.22;4990853;28;20440;-43
2023/07/13 03:20:07;;;;;;;19.87;18.27;;;;;;;14.85;100.00;101055.88;4990379;28;20434;-43
2023/07/13 03:22:34;;;;;;;20.47;18.63;;;;;;;14.88;100.00;101064.31;4989894;28;20469;-44
2023/07/13 03:25:02;;;;;;;18.57;17.10;;;;;;;14.93;100.00;101067.16;4989979;28;20470;-44
2023/07/13 03:27:30;;;;;;;18.90;17.40;;;;;;;14.97;100.00;101067.56;4991147;28;20478;-49
2023/07/13 03:29:57;;;;;;;18.63;17.10;;;;;;;14.99;100.00;101065.50;4990878;28;20496;-42
2023/07/13 03:32:25;;;;;;;21.13;18.00;;;;;;;15.03;100.00;101068.56;4990759;28;20521;-43
2023/07/13 03:34:53;;;;;;;17.00;16.00;;;;;;;15.07;100.00;101059.84;4989930;28;20458;-42
2023/07/13 03:37:22;;;;;;;17.97;16.60;;;;;;;15.13;100.00;101060.84;4990242;28;20488;-43
2023/07/13 03:39:49;;;;;;;19.73;18.03;;;;;;;15.18;100.00;101064.53;4990898;28;20529;-44
2023/07/13 03:42:17;;;;;;;17.90;16.57;;;;;;;15.25;100.00;101065.31;4989945;28;20462;-48
2023/07/13 03:44:52;;;;;;;18.07;16.33;;;;;;;15.35;100.00;101073.66;4989697;28;20542;-44
2023/07/13 03:47:20;;;;;;;16.23;15.03;;;;;;;15.47;100.00;101063.88;4990639;28;20440;-43
2023/07/13 03:49:48;;;;;;;16.30;15.17;;;;;;;15.62;100.00;101074.28;4989780;28;20437;-45
2023/07/13 03:52:15;;;;;;;15.07;14.03;;;;;;;15.74;100.00;101080.59;4989074;28;20473;-43
2023/07/13 03:54:44;;;;;;;14.90;13.80;;;;;;;15.86;100.00;101073.44;4989092;28;21178;-44
2023/07/13 03:57:12;;;;;;;16.27;15.17;;;;;;;15.98;100.00;101078.88;4990487;28;20566;-45
2023/07/13 03:59:39;;;;;;;14.90;14.00;;;;;;;16.04;100.00;101080.69;4989667;28;20437;-43
2023/07/13 04:02:07;;;;;;;14.73;13.63;;;;;;;16.12;100.00;101071.50;4988983;28;20548;-42
2023/07/13 04:04:35;;;;;;;15.70;14.33;;;;;;;16.21;100.00;101073.69;4989936;28;20528;-42
2023/07/13 04:07:03;;;;;;;15.23;14.23;;;;;;;16.35;100.00;101072.47;4991127;28;20461;-42
2023/07/13 04:09:31;;;;;;;14.70;13.77;;;;;;;16.50;100.00;101074.75;4989837;28;20986;-42
2023/07/13 04:12:01;;;;;;;16.03;15.00;;;;;;;16.64;100.00;101080.78;4989917;28;20462;-43
2023/07/13 04:14:28;;;;;;;15.77;14.77;;;;;;;16.75;100.00;101078.19;4990527;28;20480;-46
2023/07/13 04:16:57;;;;;;;16.53;15.13;;;;;;;16.85;100.00;101075.72;4989116;28;20492;-42
2023/07/13 04:19:25;;;;;;;15.57;14.23;;;;;;;16.96;100.00;101079.53;4989497;28;21216;-44
2023/07/13 04:21:52;;;;;;;14.50;13.23;;;;;;;17.01;100.00;101077.78;4990157;28;20453;-43
2023/07/13 04:24:20;;;;;;;14.07;13.23;;;;;;;17.20;100.00;101069.63;4990797;28;20418;-44
2023/07/13 04:26:48;;;;;;;14.60;13.57;;;;;;;17.28;100.00;101077.34;4989625;28;20494;-44
2023/07/13 04:29:17;;;;;;;14.13;13.23;;;;;;;17.34;100.00;101079.13;4989843;28;20857;-48
2023/07/13 04:31:44;;;;;;;13.43;12.53;;;;;;;17.34;100.00;101084.53;4988594;28;20485;-43
2023/07/13 04:34:12;;;;;;;15.40;14.23;;;;;;;17.34;100.00;101087.22;4989140;28;20845;-44
2023/07/13 04:36:40;;;;;;;13.60;12.77;;;;;;;17.31;100.00;101082.28;4989174;28;20537;-42
2023/07/13 04:39:08;;;;;;;17.30;13.47;;;;;;;17.21;100.00;101096.31;4989086;28;20537;-43
2023/07/13 04:41:36;;;;;;;12.90;12.00;;;;;;;17.16;100.00;101096.22;4989162;28;20802;-44
2023/07/13 04:44:04;;;;;;;14.43;13.40;;;;;;;17.07;100.00;101098.41;4989329;28;20952;-48
2023/07/13 04:46:34;;;;;;;13.80;12.80;;;;;;;16.99;100.00;101101.41;4989665;28;20477;-46
2023/07/13 04:49:03;;;;;;;14.17;13.27;;;;;;;16.94;100.00;101112.06;4989747;28;20438;-49
2023/07/13 04:51:31;;;;;;;13.73;12.73;;;;;;;16.88;100.00;101121.06;4992634;28;20512;-44
2023/07/13 04:53:59;;;;;;;15.77;13.27;;;;;;;16.73;100.00;101123.34;4993874;28;20481;-43
2023/07/13 04:56:28;;;;;;;14.47;13.33;;;;;;;16.65;100.00;101129.06;4994608;28;20489;-46
2023/07/13 04:58:56;;;;;;;13.60;12.73;;;;;;;16.58;100.00;101137.22;4993625;28;20442;-42
2023/07/13 05:01:24;;;;;;;11.97;10.90;;;;;;;16.41;100.00;101156.84;4993486;28;20453;-41
2023/07/13 05:03:56;;;;;;;10.17;9.57;;;;;;;16.18;100.00;101154.84;4992967;28;20484;-44
2023/07/13 05:06:23;;;;;;;10.30;9.77;;;;;;;16.10;100.00;101151.63;4992274;28;20462;-43
2023/07/13 05:08:51;;;;;;;10.10;9.40;;;;;;;15.96;100.00;101141.00;4993121;28;21028;-45
2023/07/13 05:11:19;;;;;;;9.83;9.43;;;;;;;15.77;100.00;101146.56;4992339;28;20508;-44
2023/07/13 05:13:47;;;;;;;14.13;9.97;;;;;;;15.65;100.00;101151.00;4993076;28;20982;-43
2023/07/13 05:16:15;;;;;;;10.27;9.40;;;;;;;15.60;100.00;101140.91;4992357;28;20461;-43
2023/07/13 05:18:42;;;;;;;9.00;8.70;;;;;;;15.60;100.00;101143.59;4992787;28;21079;-47
2023/07/13 05:21:12;;;;;;;9.43;9.03;;;;;;;15.64;100.00;101149.34;4992437;28;20450;-43
2023/07/13 05:23:42;;;;;;;10.50;9.67;;;;;;;15.64;100.00;101143.97;4992453;28;20429;-43
2023/07/13 05:26:11;;;;;;;9.17;8.73;;;;;;;15.70;100.00;101160.06;4992992;28;20469;-44
2023/07/13 05:28:39;;;;;;;8.90;8.40;;;;;;;15.73;100.00;101158.78;4992196;28;20437;-45
2023/07/13 05:31:09;;;;;;;9.50;9.00;;;;;;;15.77;100.00;101152.75;4992812;28;20478;-47
2023/07/13 05:33:37;;;;;;;8.70;8.27;;;;;;;15.82;100.00;101161.00;4992777;28;20808;-45
2023/07/13 05:36:05;;;;;;;9.17;8.70;;;;;;;15.94;100.00;101148.47;4991838;28;20457;-43
2023/07/13 05:38:34;;;;;;;8.83;8.20;;;;;;;16.10;100.00;101154.31;4992073;28;20457;-44
2023/07/13 05:41:02;;;;;;;8.87;8.37;;;;;;;16.29;100.00;101150.56;4992562;28;20442;-44
2023/07/13 05:43:33;;;;;;;8.13;7.73;;;;;;;16.56;100.00;101154.66;4993435;28;20920;-46
2023/07/13 05:46:01;;;;;;;8.43;8.13;;;;;;;17.42;100.00;101160.47;4992984;28;21000;-44
2023/07/13 05:48:29;;;;;;;8.83;8.53;;;;;;;18.22;100.00;101156.22;4993580;28;20437;-47
2023/07/13 05:50:57;;;;;;;9.03;8.63;;;;;;;18.35;100.00;101143.50;4993417;28;20434;-45
2023/07/13 05:53:25;;;;;;;9.53;8.93;;;;;;;18.48;100.00;101135.16;4992395;28;20489;-44
2023/07/13 05:55:55;;;;;;;8.77;8.50;;;;;;;18.66;100.00;101133.16;4991482;28;20462;-46
2023/07/13 05:58:25;;;;;;;9.60;9.10;;;;;;;18.74;100.00;101138.16;4991897;28;20436;-49
2023/07/13 06:01:01;;;;;;;8.93;8.63;;;;;;;18.82;100.00;101133.44;4992534;28;20433;-43
2023/07/13 06:03:29;;;;;;;9.40;9.03;;;;;;;18.87;100.00;101145.16;4992544;28;20483;-49
2023/07/13 06:05:56;;;;;;;9.30;9.00;;;;;;;18.91;100.00;101143.59;4991198;28;20552;-44
2023/07/13 06:08:24;;;;;;;9.63;9.27;;;;;;;19.11;100.00;101149.41;4992669;28;20773;-44
2023/07/13 06:10:53;;;;;;;9.00;8.70;;;;;;;19.09;100.00;101148.81;4993374;28;20440;-44
2023/07/13 06:13:21;;;;;;;9.50;9.17;;;;;;;19.15;100.00;101153.25;4992853;28;20477;-43
2023/07/13 06:15:49;;;;;;;9.57;9.17;;;;;;;19.61;100.00;101154.06;4991713;28;20508;-43
2023/07/13 06:18:17;;;;;;;9.30;8.80;;;;;;;20.21;100.00;101141.47;4993002;28;20479;-43
2023/07/13 06:20:45;;;;;;;9.23;8.83;;;;;;;20.34;100.00;101145.69;4992458;28;21169;-44
2023/07/13 06:23:12;;;;;;;9.23;8.87;;;;;;;20.77;100.00;101145.69;4992102;28;20431;-45
2023/07/13 06:25:41;;;;;;;9.83;9.43;;;;;;;21.01;100.00;101142.69;4992333;28;20549;-44
2023/07/13 06:28:10;;;;;;;9.83;9.43;;;;;;;21.25;100.00;101133.19;4992740;28;20484;-44
2023/07/13 06:30:39;;;;;;;9.87;9.47;;;;;;;21.31;100.00;101143.03;4992211;28;20433;-46
2023/07/13 06:33:06;;;;;;;10.60;10.10;;;;;;;21.27;100.00;101148.13;4992511;28;20833;-44
2023/07/13 06:35:34;;;;;;;10.70;10.07;;;;;;;21.11;100.00;101134.72;4991907;28;20896;-44
2023/07/13 06:38:02;;;;;;;10.87;10.20;;;;;;;20.82;100.00;101140.31;4992124;28;20944;-44
2023/07/13 06:40:31;;;;;;;12.30;11.40;;;;;;;20.58;100.00;101149.81;4991397;28;20434;-44
2023/07/13 06:42:58;;;;;;;12.30;11.37;;;;;;;20.56;100.00;101153.84;4992200;28;20457;-45
2023/07/13 06:45:28;;;;;;;11.47;10.87;;;;;;;20.49;100.00;101153.22;4992181;28;20472;-46
2023/07/13 06:47:55;;;;;;;12.00;11.20;;;;;;;20.47;100.00;101158.88;4992066;28;20487;-46
2023/07/13 06:50:23;;;;;;;11.37;10.80;;;;;;;20.56;100.00;101167.38;4992026;28;20435;-45
2023/07/13 06:52:52;;;;;;;11.73;10.73;;;;;;;20.63;100.00;101168.03;4992146;28;20575;-49
2023/07/13 06:55:20;;;;;;;11.47;10.70;;;;;;;20.87;100.00;101166.69;4991562;28;20465;-46
2023/07/13 06:57:48;;;;;;;11.40;10.80;;;;;;;20.78;100.00;101170.91;4991795;28;21027;-45
2023/07/13 07:00:16;;;;;;;11.30;10.63;;;;;;;20.67;100.00;101167.25;4992259;28;20438;-49
2023/07/13 07:02:45;;;;;;;11.83;10.70;;;;;;;20.56;100.00;101160.09;4992571;28;20457;-44
2023/07/13 07:05:13;;;;;;;11.37;10.67;;;;;;;20.61;100.00;101157.44;4992356;28;20556;-44
2023/07/13 07:07:41;;;;;;;11.93;11.00;;;;;;;20.53;100.00;101147.03;4982070;28;20848;-44
2023/07/13 07:10:09;;;;;;;11.73;11.00;;;;;;;20.48;100.00;101149.69;4977520;28;20497;-44
2023/07/13 07:12:37;;;;;;;9.97;9.37;;;;;;;20.37;100.00;101147.91;4972962;28;20482;-47
2023/07/13 07:15:06;;;;;;;10.43;9.90;;;;;;;20.22;100.00;101162.03;4973266;28;20493;-46
2023/07/13 07:17:34;;;;;;;10.37;9.60;;;;;;;20.25;100.00;101174.28;4973592;28;20521;-44
2023/07/13 07:20:04;;;;;;;10.70;10.10;;;;;;;20.16;100.00;101170.34;4972528;28;20441;-44
2023/07/13 07:22:32;;;;;;;10.80;10.20;;;;;;;20.16;100.00;101167.66;4972998;28;20561;-51
2023/07/13 07:25:00;;;;;;;11.43;10.60;;;;;;;20.23;100.00;101171.81;4972754;28;20809;-48
2023/07/13 07:27:27;;;;;;;11.50;10.80;;;;;;;20.29;100.00;101170.84;4972343;28;20498;-46
2023/07/13 07:29:58;;;;;;;11.10;10.50;;;;;;;20.29;100.00;101170.84;4972766;28;20481;-44
2023/07/13 07:32:30;;;;;;;11.93;11.30;;;;;;;21.38;100.00;101170.78;4972609;28;20968;-45
2023/07/13 07:35:19;;;;;;;12.70;11.90;;;;;;;22.19;100.00;101166.78;4971515;28;20466;-44
2023/07/13 07:37:47;;;;;;;12.10;11.30;;;;;;;22.79;100.00;101154.59;4972655;28;20466;-46
2023/07/13 07:40:18;;;;;;;11.50;10.90;;;;;;;23.98;100.00;101159.63;4973208;28;20454;-44
2023/07/13 07:42:48;;;;;;;13.33;12.20;;;;;;;24.68;100.00;101153.13;4972043;28;20457;-47
2023/07/13 07:45:16;;;;;;;12.23;11.03;;;;;;;25.12;100.00;101153.19;4972380;28;20471;-47
2023/07/13 07:47:44;;;;;;;11.53;10.63;;;;;;;24.66;100.00;101147.16;4970974;28;20462;-44
2023/07/13 07:50:12;;;;;;;11.60;10.50;;;;;;;24.16;100.00;101157.13;4971904;28;20434;-44
2023/07/13 07:52:42;;;;;;;10.43;9.73;;;;;;;23.39;100.00;101146.56;4972080;28;20888;-47
2023/07/13 07:55:09;;;;;;;10.70;9.97;;;;;;;23.05;100.00;101137.25;4972394;28;20489;-45
2023/07/13 07:57:40;;;;;;;9.20;8.70;;;;;;;22.59;100.00;101142.53;4970877;28;20454;-44
2023/07/13 08:00:11;;;;;;;10.00;9.10;;;;;;;22.46;100.00;101143.00;4973656;28;20564;-46
2023/07/13 08:02:42;;;;;;;7.83;7.27;;;;;;;21.86;100.00;101143.47;4984848;28;20536;-46
2023/07/13 08:05:13;;;;;;;9.23;8.50;;;;;;;22.75;100.00;101148.06;4974165;28;20482;-43
2023/07/13 08:07:45;;;;;;;8.23;7.73;;;;;;;23.18;100.00;101135.94;4985615;28;21007;-43
2023/07/13 08:10:13;;;;;;;8.73;7.80;;;;;;;23.39;100.00;101132.13;4987530;28;20429;-43
2023/07/13 08:12:41;;;;;;;8.93;8.07;;;;;;;23.88;100.00;101132.38;4991115;28;20513;-44
2023/07/13 08:15:29;;;;;;;8.23;7.73;;;;;;;24.08;100.00;101132.34;4990446;28;20984;-44
2023/07/13 08:17:57;;;;;;;7.67;7.10;;;;;;;23.71;100.00;101138.13;4988863;28;20468;-50
2023/07/13 08:20:25;;;;;;;6.47;6.07;;;;;;;23.89;100.00;101132.13;4988056;28;21014;-43
2023/07/13 08:22:54;;;;;;;6.50;6.10;;;;;;;24.01;100.00;101134.56;4987343;28;20453;-43
2023/07/13 08:25:22;;;;;;;6.87;6.30;;;;;;;23.95;100.00;101139.19;4969959;28;20462;-44
2023/07/13 08:27:50;;;;;;;6.83;5.73;;;;;;;23.79;100.00;101137.56;4974293;28;20882;-47
2023/07/13 08:30:18;;;;;;;6.10;5.63;;;;;;;23.15;100.00;101145.41;4975216;28;20438;-49
2023/07/13 08:32:45;;;;;;;5.83;5.30;;;;;;;22.73;100.00;101153.75;4973337;28;20477;-46
2023/07/13 08:35:15;;;;;;;6.03;5.63;;;;;;;23.01;100.00;101134.25;4973400;28;20466;-49
2023/07/13 08:37:43;;;;;;;6.67;6.10;;;;;;;23.53;100.00;101141.41;4974473;28;20442;-45
2023/07/13 08:40:13;;;;;;;5.53;5.23;;;;;;;23.71;100.00;101132.69;4973424;28;20521;-43
2023/07/13 08:42:45;;;;;;;6.90;6.50;;;;;;;24.39;100.00;101130.38;4974932;28;20450;-45
2023/07/13 08:45:21;;;;;;;10.50;6.27;;;;;;;24.76;100.00;101117.91;4973369;28;20553;-47
2023/07/13 08:47:54;;;;;;;5.90;5.50;;;;;;;24.38;100.00;101118.63;4972356;28;20441;-45
2023/07/13 08:50:27;;;;;;;5.43;5.03;;;;;;;23.91;100.00;101113.59;4973210;28;20786;-46
2023/07/13 08:52:56;;;;;;;5.97;5.43;;;;;;;23.44;100.00;101132.16;4971285;28;20450;-45
2023/07/13 08:55:31;;;;;;;6.13;5.63;;;;;;;22.99;100.00;101132.91;4984366;28;20465;-47
2023/07/13 08:58:03;;;;;;;6.63;5.97;;;;;;;23.37;100.00;101128.84;4991883;28;20440;-43
2023/07/13 09:00:39;;;;;;;8.37;6.67;;;;;;;23.71;100.00;101127.25;4990012;28;20441;-47
2023/07/13 09:03:20;;;;;;;6.70;6.13;;;;;;;23.81;100.00;101120.94;4992794;28;20453;-46
2023/07/13 09:05:54;;;;;;;6.40;5.90;;;;;;;24.03;100.00;101114.09;4992619;28;20540;-44
2023/07/13 09:08:55;;;;;;;6.83;5.80;;;;;;;24.16;100.00;101115.47;4992544;28;20430;-44
2023/07/13 09:11:46;;;;;;;6.60;5.10;;;;;;;24.49;93.32;101116.69;4993044;28;20487;-43
2023/07/13 09:14:35;;;;;;;6.67;4.80;;;;;;;24.23;89.39;101133.16;4992113;28;21255;-43
2023/07/13 09:17:05;;;;;;;6.33;5.57;;;;;;;23.80;91.34;101122.06;4991930;28;20463;-44
2023/07/13 09:19:35;;;;;;;4.70;4.50;;;;;;;23.87;95.00;101130.75;4991408;28;20448;-46
2023/07/13 09:22:08;;;;;;;5.33;4.90;;;;;;;24.09;93.68;101121.16;4992387;28;20453;-43
2023/07/13 09:24:39;;;;;;;4.83;4.53;;;;;;;24.25;91.24;101124.69;4953836;28;20995;-43
2023/07/13 09:27:17;;;;;;;5.60;5.10;;;;;;;24.65;85.27;101126.41;4972184;28;20528;-44
2023/07/13 09:29:49;;;;;;;4.87;4.43;;;;;;;24.77;84.09;101132.34;4971286;28;20442;-43
2023/07/13 09:32:21;;;;;;;4.63;4.30;;;;;;;25.15;84.51;101128.06;4986220;28;21054;-44
2023/07/13 09:34:54;;;;;;;4.90;4.50;;;;;;;25.45;84.64;101133.28;4968072;28;20466;-45
2023/07/13 09:37:24;;;;;;;5.40;4.90;;;;;;;25.39;78.01;101144.56;4968128;28;20472;-44
2023/07/13 09:39:53;;;;;;;4.97;4.43;;;;;;;25.26;75.26;101138.63;4990757;28;20426;-44
2023/07/13 09:42:23;;;;;;;4.73;4.23;;;;;;;25.08;74.45;101149.41;4968099;28;20469;-45
2023/07/13 09:44:55;;;;;;;5.20;4.33;;;;;;;25.25;75.53;101149.81;4991048;28;20790;-47
2023/07/13 09:47:26;;;;;;;5.13;4.60;;;;;;;25.21;77.88;101144.13;4991683;28;20444;-44
2023/07/13 09:49:58;;;;;;;5.20;4.83;;;;;;;25.12;76.31;101159.47;4990890;28;20781;-44
2023/07/13 09:52:41;;;;;;;9.03;5.10;;;;;;;25.19;78.16;101159.97;4967513;28;20500;-43
2023/07/13 09:55:25;;;;;;;6.40;5.40;;;;;;;25.12;78.04;101147.72;4957412;28;20520;-49
2023/07/13 09:57:54;;;;;;;6.60;5.17;;;;;;;25.33;77.33;101169.13;4972374;28;20434;-44
2023/07/13 10:00:26;;;;;;;4.77;4.40;;;;;;;25.11;72.38;101166.03;4972410;28;20439;-43
2023/07/13 10:03:03;;;;;;;6.37;4.73;;;;;;;25.37;74.82;101154.91;4971143;28;20984;-45
2023/07/13 10:05:39;;;;;;;5.03;4.33;;;;;;;25.21;71.65;101154.22;4971479;28;20454;-44
2023/07/13 10:08:15;;;;;;;4.70;4.20;;;;;;;25.35;72.92;101157.13;4972346;28;20524;-44
2023/07/13 10:10:44;;;;;;;5.03;4.63;;;;;;;25.59;72.92;101149.88;4972323;28;20637;-44
2023/07/13 10:13:27;;;;;;;4.43;3.70;;;;;;;25.42;73.82;101155.69;4970942;28;20431;-45
2023/07/13 10:15:57;;;;;;;6.47;4.60;;;;;;;25.33;77.20;101159.34;4971117;28;21290;-43
2023/07/13 10:18:30;;;;;;;9.93;4.77;;;;;;;24.97;77.09;101178.66;4977997;28;20444;-46
2023/07/13 10:21:11;;;;;;;5.20;4.07;;;;;;;24.20;87.27;101190.09;4977677;28;20485;-43
2023/07/13 10:24:07;;;;;;;5.60;3.80;;;;;;;24.24;82.14;101193.91;4986406;28;21174;-47
2023/07/13 10:26:35;;;;;;;4.00;3.80;;;;;;;24.17;80.11;101191.47;4996448;28;20460;-44
2023/07/13 10:29:11;;;;;;;5.10;3.67;;;;;;;24.57;72.58;101187.81;4998131;28;20473;-44
2023/07/13 10:31:40;;;;;;;3.80;3.60;;;;;;;24.88;70.59;101195.91;4996102;28;20460;-41
2023/07/13 10:34:10;;;;;;;4.10;3.90;;;;;;;24.44;85.31;101196.59;4987042;28;20509;-49
2023/07/13 10:36:43;;;;;;;4.23;3.93;;;;;;;23.69;87.90;101192.84;4978939;28;20458;-43
2023/07/13 10:39:16;;;;;;;3.97;3.50;;;;;;;23.53;98.48;101193.97;4978928;28;20473;-47
2023/07/13 10:41:47;;;;;;;4.00;3.80;;;;;;;23.19;99.36;101194.69;4977081;28;20921;-43
2023/07/13 10:44:25;;;;;;;5.30;3.50;;;;;;;23.24;100.00;101190.06;4990847;28;20441;-47
2023/07/13 10:46:56;;;;;;;4.47;4.17;;;;;;;23.28;100.00;101198.50;4998780;28;20541;-43
2023/07/13 10:49:27;;;;;;;5.57;4.37;;;;;;;23.43;100.00;101198.56;4996689;28;21156;-45
2023/07/13 10:51:55;;;;;;;5.40;5.00;;;;;;;23.60;100.00;101193.66;4997763;28;20544;-42
2023/07/13 10:54:28;;;;;;;5.07;4.67;;;;;;;23.93;100.00;101195.00;4992168;28;20470;-42
2023/07/13 10:57:16;;;;;;;8.90;5.50;;;;;;;24.27;100.00;101193.38;4977199;28;20463;-46
2023/07/13 10:59:48;;;;;;;5.23;4.93;;;;;;;24.47;100.00;101196.03;4977708;28;20411;-41
2023/07/13 11:02:25;;;;;;;5.20;4.73;;;;;;;24.68;100.00;101180.41;4976835;28;20493;-42
2023/07/13 11:04:57;;;;;;;6.73;4.80;;;;;;;24.37;100.00;101192.53;4995278;28;20465;-41
2023/07/13 11:07:27;;;;;;;7.50;4.57;;;;;;;24.18;100.00;101186.84;4996882;28;20556;-41
2023/07/13 11:09:57;;;;;;;4.67;4.27;;;;;;;24.49;95.53;101188.38;4997518;28;20972;-41
2023/07/13 11:12:53;;;;;;;5.20;4.40;;;;;;;24.49;93.33;101177.47;4998421;28;20532;-43
2023/07/13 11:15:44;;;;;;;6.73;4.57;;;;;;;24.83;90.78;101190.47;4989466;28;20525;-44
2023/07/13 11:18:23;;;;;;;4.90;4.17;;;;;;;25.13;84.31;101188.38;4991856;28;20898;-47
2023/07/13 11:20:50;;;;;;;7.90;5.20;;;;;;;25.16;83.34;101181.56;4992128;28;20421;-45
2023/07/13 11:23:27;;;;;;;4.77;4.10;;;;;;;25.25;84.13;101193.50;4989724;28;20469;-47